createdAt,value
2023-01-13T00:01:00.620Z,51.65
2023-01-13T00:04:05.077Z,51.33
2023-01-13T00:07:08.529Z,51.52
2023-01-13T00:10:13.304Z,51.54
2023-01-13T00:13:16.825Z,51.03
2023-01-13T00:16:21.900Z,51.03
2023-01-13T00:19:25.316Z,51.34
2023-01-13T00:22:29.355Z,51.04
2023-01-13T00:25:34.150Z,51.11
2023-01-13T00:28:37.563Z,50.84
2023-01-13T00:31:41.033Z,50.83
2023-01-13T00:34:44.231Z,51.02
2023-01-13T00:37:47.821Z,50.72
2023-01-13T00:40:59.146Z,50.76
2023-01-13T00:44:01.811Z,50.96
2023-01-13T00:47:05.178Z,50.68
2023-01-13T00:50:10.947Z,50.46
2023-01-13T00:53:16.277Z,50.65
2023-01-13T00:56:40.577Z,50.39
2023-01-13T00:59:44.507Z,50.58
2023-01-13T01:02:48.294Z,50.50
2023-01-13T01:05:51.576Z,50.25
2023-01-13T01:08:57.479Z,50.27
2023-01-13T01:12:02.641Z,50.16
2023-01-13T01:15:09.930Z,51.45
2023-01-13T01:18:13.315Z,53.29
2023-01-13T01:21:17.908Z,54.49
2023-01-13T01:24:21.233Z,54.85
2023-01-13T01:27:26.296Z,55.07
2023-01-13T01:30:29.599Z,55.04
2023-01-13T01:33:33.290Z,55.01
2023-01-13T01:36:36.724Z,55.12
2023-01-13T01:39:40.285Z,54.80
2023-01-13T01:43:02.590Z,55.04
2023-01-13T01:46:06.526Z,54.88
2023-01-13T01:49:20.490Z,54.86
2023-01-13T01:52:30.456Z,54.74
2023-01-13T01:55:37.124Z,54.67
2023-01-13T01:58:51.232Z,54.36
2023-01-13T02:01:54.725Z,54.27
2023-01-13T02:05:00.187Z,54.26
2023-01-13T02:08:05.003Z,54.09
2023-01-13T02:11:30.274Z,54.16
2023-01-13T02:14:37.124Z,54.00
2023-01-13T02:18:31.595Z,53.98
2023-01-13T02:22:22.050Z,53.59
2023-01-13T02:25:59.047Z,53.67
2023-01-13T02:29:34.531Z,53.67
2023-01-13T02:33:00.967Z,53.25
2023-01-13T02:36:18.100Z,53.22
2023-01-13T02:39:34.370Z,53.38
2023-01-13T02:43:06.032Z,53.48
2023-01-13T02:46:15.681Z,53.18
2023-01-13T02:49:32.342Z,52.94
2023-01-13T02:52:44.201Z,53.08
2023-01-13T02:55:53.387Z,53.16
2023-01-13T02:59:01.191Z,53.04
2023-01-13T03:02:09.513Z,53.02
2023-01-13T03:05:18.159Z,52.81
2023-01-13T03:08:43.146Z,52.55
2023-01-13T03:12:00.430Z,52.51
2023-01-13T03:15:18.360Z,52.40
2023-01-13T03:18:42.468Z,52.33
2023-01-13T03:21:56.813Z,52.24
2023-01-13T03:25:11.984Z,52.34
2023-01-13T03:28:29.049Z,52.29
2023-01-13T03:31:41.416Z,52.14
2023-01-13T03:34:51.750Z,51.98
2023-01-13T03:38:06.514Z,51.99
2023-01-13T03:41:19.225Z,52.04
2023-01-13T03:44:34.011Z,51.79
2023-01-13T03:47:48.033Z,51.86
2023-01-13T03:50:57.023Z,51.85
2023-01-13T03:54:10.227Z,51.86
2023-01-13T03:57:19.379Z,51.50
2023-01-13T04:00:32.695Z,51.78
2023-01-13T04:03:47.037Z,51.75
2023-01-13T04:06:59.146Z,51.71
2023-01-13T04:10:09.842Z,51.72
2023-01-13T04:13:19.122Z,51.52
2023-01-13T04:16:23.072Z,51.83
2023-01-13T04:19:26.475Z,51.60
2023-01-13T04:22:29.961Z,51.47
2023-01-13T04:25:35.536Z,51.15
2023-01-13T04:28:40.734Z,51.22
2023-01-13T04:31:44.672Z,50.84
2023-01-13T04:34:48.271Z,51.08
2023-01-13T04:37:52.139Z,50.85
2023-01-13T04:40:57.032Z,50.90
2023-01-13T04:44:00.247Z,50.94
2023-01-13T04:47:04.450Z,50.79
2023-01-13T04:50:09.451Z,50.95
2023-01-13T04:53:13.088Z,50.73
2023-01-13T04:56:17.945Z,50.69
2023-01-13T04:59:21.629Z,50.92
2023-01-13T05:02:25.014Z,51.13
2023-01-13T05:05:30.162Z,51.08
2023-01-13T05:08:33.611Z,50.96
2023-01-13T05:11:56.042Z,51.00
2023-01-13T05:15:16.968Z,50.80
2023-01-13T05:18:21.442Z,50.95
2023-01-13T05:21:42.001Z,50.81
2023-01-13T05:25:04.268Z,50.83
2023-01-13T05:28:09.644Z,50.93
2023-01-13T05:31:14.959Z,51.00
2023-01-13T05:34:18.307Z,50.84
2023-01-13T05:37:24.195Z,50.83
2023-01-13T05:40:44.943Z,50.60
2023-01-13T05:43:50.243Z,50.56
2023-01-13T05:46:53.500Z,50.94
2023-01-13T05:49:57.308Z,50.45
2023-01-13T05:53:00.833Z,50.84
2023-01-13T05:56:06.322Z,50.42
2023-01-13T05:59:11.223Z,50.70
2023-01-13T06:02:14.892Z,50.50
2023-01-13T06:05:18.305Z,50.40
2023-01-13T06:08:21.742Z,50.29
2023-01-13T06:11:24.922Z,50.33
2023-01-13T06:14:39.983Z,50.14
2023-01-13T06:17:43.837Z,50.17
2023-01-13T06:20:48.376Z,50.15
2023-01-13T06:23:52.101Z,50.17
2023-01-13T06:27:01.743Z,50.09
2023-01-13T06:30:12.107Z,49.82
2023-01-13T06:33:23.018Z,50.01
2023-01-13T06:36:34.264Z,49.95
2023-01-13T06:39:38.218Z,49.66
2023-01-13T06:42:59.571Z,49.64
2023-01-13T06:46:04.675Z,49.81
2023-01-13T06:49:08.110Z,49.83
2023-01-13T06:52:11.563Z,49.52
2023-01-13T06:55:15.296Z,49.47
2023-01-13T06:58:18.883Z,49.67
2023-01-13T07:01:23.920Z,49.64
2023-01-13T07:04:27.472Z,49.40
2023-01-13T07:07:32.854Z,49.66
2023-01-13T07:10:38.467Z,49.40
2023-01-13T07:14:10.793Z,49.58
2023-01-13T07:17:15.932Z,49.62
2023-01-13T07:20:19.648Z,49.45
2023-01-13T07:23:23.534Z,49.43
2023-01-13T07:26:27.115Z,49.50
2023-01-13T07:29:30.614Z,49.68
2023-01-13T07:32:35.781Z,49.62
2023-01-13T07:35:40.644Z,49.37
2023-01-13T07:38:44.803Z,49.20
2023-01-13T07:42:06.184Z,49.42
2023-01-13T07:45:12.460Z,49.11
2023-01-13T07:48:17.734Z,49.48
2023-01-13T07:51:21.224Z,49.18
2023-01-13T07:54:39.743Z,49.05
2023-01-13T07:57:44.173Z,49.19
2023-01-13T08:00:48.259Z,49.21
2023-01-13T08:03:53.329Z,49.30
2023-01-13T08:06:56.998Z,49.16
2023-01-13T08:10:00.355Z,49.28
2023-01-13T08:13:20.041Z,49.42
2023-01-13T08:16:23.679Z,49.83
2023-01-13T08:19:29.275Z,50.22
2023-01-13T08:22:33.311Z,51.40
2023-01-13T08:25:37.191Z,51.81
2023-01-13T08:28:41.439Z,52.05
2023-01-13T08:31:44.960Z,52.19
2023-01-13T08:34:50.228Z,52.29
2023-01-13T08:37:53.928Z,52.20
2023-01-13T08:40:57.372Z,52.62
2023-01-13T08:44:01.245Z,53.15
2023-01-13T08:47:04.808Z,53.50
2023-01-13T08:50:11.937Z,53.39
2023-01-13T08:53:15.359Z,52.96
2023-01-13T08:56:19.152Z,52.91
2023-01-13T08:59:23.122Z,52.47
2023-01-13T09:02:28.415Z,52.65
2023-01-13T09:05:33.485Z,52.82
2023-01-13T09:08:37.019Z,53.34
2023-01-13T09:12:02.027Z,53.42
2023-01-13T09:15:07.359Z,54.16
2023-01-13T09:18:10.783Z,54.16
2023-01-13T09:21:16.680Z,54.15
2023-01-13T09:24:20.132Z,54.17
2023-01-13T09:27:24.194Z,54.36
2023-01-13T09:30:27.472Z,54.34
2023-01-13T09:33:48.513Z,54.59
2023-01-13T09:36:53.398Z,54.42
2023-01-13T09:39:57.790Z,54.12
2023-01-13T09:43:29.859Z,53.60
2023-01-13T09:46:47.009Z,53.63
2023-01-13T09:49:50.557Z,53.54
2023-01-13T09:52:56.256Z,53.28
2023-01-13T09:55:59.884Z,52.82
2023-01-13T09:59:03.639Z,52.75
2023-01-13T10:02:32.631Z,52.34
2023-01-13T10:05:40.074Z,52.64
2023-01-13T10:08:48.136Z,52.36
2023-01-13T10:12:15.056Z,52.51
2023-01-13T10:15:23.462Z,52.62
2023-01-13T10:18:40.144Z,52.21
2023-01-13T10:22:20.624Z,52.36
2023-01-13T10:25:42.444Z,52.50
2023-01-13T10:28:53.174Z,52.31
2023-01-13T10:31:59.605Z,52.60
2023-01-13T10:35:03.059Z,52.21
2023-01-13T10:38:06.868Z,52.39
2023-01-13T10:41:26.966Z,52.30
2023-01-13T10:44:30.902Z,51.88
2023-01-13T10:47:37.207Z,51.65
2023-01-13T10:50:44.039Z,51.50
2023-01-13T10:53:54.112Z,51.56
2023-01-13T10:57:20.160Z,51.53
2023-01-13T11:00:33.327Z,51.77
2023-01-13T11:03:41.776Z,51.67
2023-01-13T11:06:47.657Z,51.80
2023-01-13T11:10:12.783Z,51.68
2023-01-13T11:13:24.842Z,51.74
2023-01-13T11:16:29.925Z,51.83
2023-01-13T11:19:37.954Z,51.82
2023-01-13T11:22:49.158Z,51.49
2023-01-13T11:26:01.576Z,51.85
2023-01-13T11:29:19.294Z,51.67
2023-01-13T11:32:25.688Z,51.29
2023-01-13T11:35:35.640Z,51.23
2023-01-13T11:38:49.198Z,51.28
2023-01-13T11:42:17.350Z,51.46
2023-01-13T11:45:33.413Z,51.42
2023-01-13T11:48:43.103Z,51.53
2023-01-13T11:51:58.953Z,51.44
2023-01-13T11:55:23.596Z,51.30
2023-01-13T11:59:11.597Z,51.13
2023-01-13T12:02:34.396Z,51.04
2023-01-13T12:05:41.530Z,51.10
2023-01-13T12:09:31.452Z,51.15
2023-01-13T12:12:49.680Z,51.10
2023-01-13T12:16:12.451Z,51.16
2023-01-13T12:19:28.034Z,51.21
2023-01-13T12:22:36.887Z,50.99
2023-01-13T12:25:48.189Z,51.15
2023-01-13T12:28:58.881Z,51.38
2023-01-13T12:32:08.552Z,51.13
2023-01-13T12:35:37.948Z,51.20
2023-01-13T12:38:53.407Z,51.05
2023-01-13T12:42:22.429Z,50.93
2023-01-13T12:45:29.634Z,51.35
2023-01-13T12:49:08.573Z,51.71
2023-01-13T12:52:19.888Z,51.51
2023-01-13T12:55:25.017Z,51.68
2023-01-13T12:58:30.793Z,51.29
2023-01-13T13:01:37.549Z,51.25
2023-01-13T13:04:49.917Z,51.70
2023-01-13T13:08:17.305Z,51.86
2023-01-13T13:11:59.175Z,51.42
2023-01-13T13:15:21.760Z,51.36
2023-01-13T13:18:30.495Z,51.58
2023-01-13T13:22:37.913Z,51.88
2023-01-13T13:26:04.689Z,51.79
2023-01-13T13:29:29.887Z,51.40
2023-01-13T13:33:05.838Z,51.58
2023-01-13T13:36:39.142Z,51.55
2023-01-13T13:40:07.692Z,52.16
2023-01-13T13:43:33.964Z,51.99
2023-01-13T13:46:50.874Z,51.58
2023-01-13T13:49:55.773Z,51.50
2023-01-13T13:53:07.150Z,51.38
2023-01-13T13:56:22.514Z,45.61
2023-01-13T13:59:31.004Z,41.16
2023-01-13T14:02:38.756Z,39.03
2023-01-13T14:05:56.974Z,38.71
2023-01-13T14:09:00.465Z,38.41
2023-01-13T14:12:07.797Z,42.16
2023-01-13T14:15:32.735Z,44.33
2023-01-13T14:18:47.041Z,45.41
2023-01-13T14:21:50.667Z,46.54
2023-01-13T14:24:57.704Z,47.43
2023-01-13T14:28:18.374Z,47.88
2023-01-13T14:31:24.613Z,48.49
2023-01-13T14:34:33.293Z,48.91
2023-01-13T14:37:39.991Z,49.33
2023-01-13T14:40:46.763Z,49.81
2023-01-13T14:43:54.147Z,50.02
2023-01-13T14:47:02.034Z,50.25
2023-01-13T14:50:20.669Z,50.37
2023-01-13T14:53:40.206Z,50.59
2023-01-13T14:56:53.735Z,50.56
2023-01-13T15:00:04.871Z,50.52
2023-01-13T15:03:09.912Z,50.66
2023-01-13T15:06:25.692Z,50.40
2023-01-13T15:09:36.720Z,50.51
2023-01-13T15:12:41.913Z,50.29
2023-01-13T15:15:54.470Z,49.99
2023-01-13T15:18:59.361Z,49.99
2023-01-13T15:22:03.077Z,49.94
2023-01-13T15:25:09.543Z,49.95
2023-01-13T15:28:21.088Z,49.71
2023-01-13T15:31:26.167Z,49.83
2023-01-13T15:34:31.250Z,49.83
2023-01-13T15:37:34.745Z,49.67
2023-01-13T15:40:38.665Z,49.63
2023-01-13T15:43:59.794Z,49.62
2023-01-13T15:47:07.927Z,49.44
2023-01-13T15:50:18.243Z,49.35
2023-01-13T15:53:22.176Z,49.11
2023-01-13T15:56:27.583Z,49.28
2023-01-13T15:59:31.318Z,49.08
2023-01-13T16:02:35.207Z,49.22
2023-01-13T16:05:40.806Z,49.17
2023-01-13T16:08:44.269Z,49.15
2023-01-13T16:11:48.057Z,49.26
2023-01-13T16:14:51.564Z,49.22
2023-01-13T16:17:59.761Z,48.96
2023-01-13T16:21:04.889Z,48.89
2023-01-13T16:24:08.854Z,48.92
2023-01-13T16:27:16.774Z,48.89
2023-01-13T16:30:27.285Z,48.44
2023-01-13T16:33:30.748Z,48.57
2023-01-13T16:36:37.702Z,48.33
2023-01-13T16:39:41.144Z,48.67
2023-01-13T16:42:44.611Z,48.52
2023-01-13T16:45:48.187Z,48.67
2023-01-13T16:48:54.230Z,48.79
2023-01-13T16:51:59.212Z,48.58
2023-01-13T16:55:03.010Z,48.87
2023-01-13T16:58:10.123Z,49.07
2023-01-13T17:01:21.833Z,49.05
2023-01-13T17:04:26.301Z,49.29
2023-01-13T17:07:33.404Z,49.14
2023-01-13T17:10:36.981Z,49.26
2023-01-13T17:13:42.538Z,48.96
2023-01-13T17:16:46.097Z,48.88
2023-01-13T17:19:50.107Z,48.78
2023-01-13T17:22:58.404Z,48.94
2023-01-13T17:26:02.109Z,48.82
2023-01-13T17:29:09.245Z,48.69
2023-01-13T17:32:17.815Z,48.74
2023-01-13T17:35:24.701Z,48.69
2023-01-13T17:38:29.601Z,48.75
2023-01-13T17:41:33.140Z,48.73
2023-01-13T17:44:37.636Z,48.70
2023-01-13T17:47:42.472Z,48.63
2023-01-13T17:50:48.753Z,48.39
2023-01-13T17:53:54.778Z,48.73
2023-01-13T17:56:58.082Z,48.61
2023-01-13T18:00:01.568Z,48.32
2023-01-13T18:03:05.712Z,48.21
2023-01-13T18:06:15.529Z,48.33
2023-01-13T18:09:20.816Z,48.29
2023-01-13T18:12:24.243Z,48.12
2023-01-13T18:15:27.874Z,48.25
2023-01-13T18:18:31.563Z,47.93
2023-01-13T18:21:53.552Z,48.36
2023-01-13T18:25:16.028Z,48.78
2023-01-13T18:28:19.313Z,49.85
2023-01-13T18:31:22.980Z,50.23
2023-01-13T18:34:26.628Z,50.09
2023-01-13T18:37:30.300Z,50.33
2023-01-13T18:40:35.254Z,50.19
2023-01-13T18:43:37.663Z,50.41
2023-01-13T18:46:41.533Z,50.33
2023-01-13T18:49:44.995Z,50.25
2023-01-13T18:52:48.592Z,50.22
2023-01-13T18:55:53.800Z,50.07
2023-01-13T18:58:57.331Z,49.96
2023-01-13T19:02:01.024Z,50.04
2023-01-13T19:05:06.439Z,50.01
2023-01-13T19:08:09.981Z,49.86
2023-01-13T19:11:15.150Z,50.22
2023-01-13T19:17:50.943Z,51.76
2023-01-13T19:20:54.277Z,51.63
2023-01-13T19:23:58.033Z,51.87
2023-01-13T19:27:01.429Z,52.03
2023-01-13T19:30:04.963Z,51.76
2023-01-13T19:33:09.931Z,51.70
2023-01-13T19:36:13.177Z,51.93
2023-01-13T19:39:16.436Z,51.91
2023-01-13T19:42:37.180Z,52.30
2023-01-13T19:45:40.634Z,52.59
2023-01-13T19:48:45.352Z,52.16
2023-01-13T19:51:48.667Z,51.99
2023-01-13T19:54:52.056Z,51.99
2023-01-13T19:57:55.813Z,52.17
2023-01-13T20:00:58.982Z,52.06
2023-01-13T20:04:05.623Z,52.14
2023-01-13T20:07:11.136Z,52.07
2023-01-13T20:10:22.056Z,52.21
2023-01-13T20:13:25.173Z,52.14
2023-01-13T20:16:30.022Z,52.00
2023-01-13T20:19:35.057Z,52.13
2023-01-13T20:22:38.982Z,52.21
2023-01-13T20:25:46.176Z,51.87
2023-01-13T20:28:50.206Z,52.10
2023-01-13T20:31:55.021Z,52.16
2023-01-13T20:34:59.812Z,51.90
2023-01-13T20:38:02.798Z,51.57
2023-01-13T20:41:21.763Z,51.76
2023-01-13T20:44:25.388Z,51.75
2023-01-13T20:47:31.533Z,51.64
2023-01-13T20:50:36.010Z,51.48
2023-01-13T20:53:39.441Z,51.30
2023-01-13T20:56:43.194Z,51.49
2023-01-13T20:59:46.613Z,51.34
2023-01-13T21:02:49.689Z,51.28
2023-01-13T21:05:54.401Z,51.67
2023-01-13T21:08:57.427Z,51.57
2023-01-13T21:12:18.294Z,51.59
2023-01-13T21:15:22.207Z,51.30
2023-01-13T21:18:43.282Z,51.58
2023-01-13T21:21:47.918Z,51.57
2023-01-13T21:24:51.701Z,51.62
2023-01-13T21:27:55.183Z,51.07
2023-01-13T21:31:02.983Z,51.04
2023-01-13T21:34:06.519Z,50.92
2023-01-13T21:37:11.144Z,51.18
2023-01-13T21:40:15.523Z,51.13
2023-01-13T21:43:36.820Z,51.34
2023-01-13T21:46:57.179Z,51.03
2023-01-13T21:50:02.025Z,51.00
2023-01-13T21:53:07.851Z,50.86
2023-01-13T21:56:11.559Z,50.73
2023-01-13T21:59:14.921Z,50.80
2023-01-13T22:02:31.691Z,50.79
2023-01-13T22:05:35.429Z,50.86
2023-01-13T22:08:40.322Z,50.40
2023-01-13T22:11:43.461Z,50.84
2023-01-13T22:14:47.140Z,50.63
2023-01-13T22:33:12.423Z,49.94
2023-01-13T22:36:16.370Z,50.04
2023-01-13T22:39:20.856Z,50.00
2023-01-13T22:42:24.463Z,49.91
2023-01-13T22:45:27.422Z,49.82
2023-01-13T22:48:32.040Z,49.93
2023-01-13T22:51:35.341Z,50.44
2023-01-13T22:54:38.720Z,50.05
2023-01-13T22:57:47.700Z,50.58
2023-01-13T23:00:51.850Z,50.37
2023-01-13T23:03:56.900Z,50.52
2023-01-13T23:07:00.973Z,50.45
2023-01-13T23:10:04.212Z,50.45
2023-01-13T23:13:09.585Z,50.59
2023-01-13T23:16:14.719Z,50.61
2023-01-13T23:19:19.508Z,50.59
2023-01-13T23:22:22.553Z,50.37
2023-01-13T23:25:25.937Z,50.37
2023-01-13T23:28:29.084Z,50.96
2023-01-13T23:31:32.689Z,50.78
2023-01-13T23:34:37.226Z,50.65
2023-01-13T23:37:40.757Z,50.84
2023-01-13T23:40:46.413Z,50.63
2023-01-13T23:43:53.858Z,50.77
2023-01-13T23:46:56.802Z,50.67
2023-01-13T23:50:01.538Z,50.78
2023-01-13T23:53:04.749Z,50.67
2023-01-13T23:56:11.754Z,50.18
2023-01-13T23:59:14.721Z,50.61
